Time;durP1;ratioP1;P1;durP2;ratioP2;P2;SDS_P1;SDS_P2;PMS_P1;PMS_P2;Temp;Humidity;BMP_temperature;BMP_pressure;BME280_temperature;BME280_humidity;BME280_pressure;Samples;Min_cycle;Max_cycle;Signal;HPM_P1;HPM_P2
2023/02/28 00:00:50;;;;;;;64.50;25.80;;;;;;;2.32;100.00;101692.84;106967;1285;58284;-82
2023/02/28 00:03:16;;;;;;;61.20;24.30;;;;;;;2.32;100.00;101701.14;106980;1283;58227;-81
2023/02/28 00:05:41;;;;;;;64.90;26.60;;;;;;;2.31;100.00;101703.75;106964;1285;58348;-81
2023/02/28 00:08:08;;;;;;;66.80;26.40;;;;;;;2.33;100.00;101707.77;106756;1285;58485;-82
2023/02/28 00:10:33;;;;;;;70.70;27.10;;;;;;;2.31;100.00;101707.98;106931;1285;60807;-81
2023/02/28 00:13:05;;;;;;;71.20;28.80;;;;;;;2.30;100.00;101705.91;106957;1284;58203;-81
2023/02/28 00:15:31;;;;;;;69.80;27.60;;;;;;;2.27;100.00;101694.21;107021;1284;74585;-82
2023/02/28 00:17:57;;;;;;;76.70;29.40;;;;;;;2.23;100.00;101698.05;106371;1285;58249;-82
2023/02/28 00:20:23;;;;;;;72.50;28.10;;;;;;;2.22;100.00;101701.95;106945;1285;58442;-81
2023/02/28 00:22:51;;;;;;;77.40;30.10;;;;;;;2.22;100.00;101706.70;106550;1284;58584;-82
2023/02/28 00:25:20;;;;;;;78.20;29.90;;;;;;;2.21;100.00;101717.20;106957;1284;60604;-82
2023/02/28 00:27:47;;;;;;;79.20;29.90;;;;;;;2.21;100.00;101721.17;106961;1285;74651;-82
2023/02/28 00:30:16;;;;;;;79.60;29.70;;;;;;;2.22;100.00;101714.02;106982;1284;59355;-82
2023/02/28 00:32:42;;;;;;;76.10;29.50;;;;;;;2.18;100.00;101709.95;106952;1284;73461;-82
2023/02/28 00:35:09;;;;;;;79.40;30.00;;;;;;;2.17;100.00;101707.67;106934;1284;58226;-82
2023/02/28 00:37:35;;;;;;;81.60;31.00;;;;;;;2.16;100.00;101701.16;106506;1284;59013;-81
2023/02/28 00:40:04;;;;;;;80.30;30.40;;;;;;;2.14;100.00;101701.45;106981;1285;58205;-81
2023/02/28 00:42:30;;;;;;;76.20;29.70;;;;;;;2.14;100.00;101713.67;107000;1284;74499;-82
2023/02/28 00:44:55;;;;;;;80.00;30.90;;;;;;;2.13;100.00;101717.17;106957;1284;58490;-81
2023/02/28 00:47:21;;;;;;;84.30;31.70;;;;;;;2.11;100.00;101710.23;106978;1283;58249;-82
2023/02/28 00:49:46;;;;;;;84.20;31.20;;;;;;;2.07;100.00;101712.13;106982;1285;58196;-82
2023/02/28 00:52:12;;;;;;;86.00;32.20;;;;;;;2.05;100.00;101722.50;106718;1285;58296;-81
2023/02/28 00:54:37;;;;;;;79.70;30.20;;;;;;;2.06;100.00;101729.08;106949;1285;72662;-82
2023/02/28 00:57:03;;;;;;;82.20;32.00;;;;;;;2.04;100.00;101730.35;107003;1284;58286;-81
2023/02/28 00:59:28;;;;;;;81.00;30.50;;;;;;;2.01;100.00;101739.11;107010;1283;58651;-81
2023/02/28 01:01:54;;;;;;;80.80;29.60;;;;;;;2.00;100.00;101743.60;106976;1284;58283;-82
2023/02/28 01:04:19;;;;;;;76.50;29.50;;;;;;;1.98;100.00;101744.67;106996;1283;58291;-81
2023/02/28 01:06:45;;;;;;;83.40;30.40;;;;;;;1.96;100.00;101736.58;106602;1285;61055;-81
2023/02/28 01:09:11;;;;;;;79.20;30.20;;;;;;;1.97;100.00;101729.06;106987;1284;58239;-81
2023/02/28 01:11:37;;;;;;;79.10;31.00;;;;;;;1.95;100.00;101725.55;106966;1285;58194;-82
2023/02/28 01:14:03;;;;;;;78.90;29.70;;;;;;;1.95;100.00;101728.48;106987;1285;58568;-81
2023/02/28 01:16:30;;;;;;;80.20;30.80;;;;;;;1.91;100.00;101733.28;106929;1284;58278;-81
2023/02/28 01:18:56;;;;;;;76.10;28.70;;;;;;;1.90;100.00;101724.96;106626;1284;58309;-81
2023/02/28 01:21:22;;;;;;;74.10;28.90;;;;;;;1.86;100.00;101726.60;106970;1284;58220;-81
2023/02/28 01:23:48;;;;;;;80.90;30.50;;;;;;;1.83;100.00;101738.52;106739;1285;58315;-81
2023/02/28 01:26:16;;;;;;;79.20;30.00;;;;;;;1.80;100.00;101746.56;106965;1284;58466;-81
2023/02/28 01:28:42;;;;;;;78.50;28.90;;;;;;;1.82;100.00;101755.35;106959;1283;58329;-81
2023/02/28 01:31:09;;;;;;;75.50;29.10;;;;;;;1.81;100.00;101764.19;106981;1284;58466;-81
2023/02/28 01:33:34;;;;;;;74.20;29.30;;;;;;;1.80;100.00;101760.88;106943;1284;58252;-81
2023/02/28 01:36:04;;;;;;;76.10;29.30;;;;;;;1.80;100.00;101764.46;106966;1285;58275;-81
2023/02/28 01:38:29;;;;;;;65.40;26.70;;;;;;;1.75;100.00;101766.29;106969;1285;58406;-81
2023/02/28 01:40:55;;;;;;;66.70;26.40;;;;;;;1.72;100.00;101766.82;106699;1285;58405;-81
2023/02/28 01:43:25;;;;;;;66.90;26.10;;;;;;;1.68;100.00;101763.85;106955;1284;58173;-81
2023/02/28 01:45:52;;;;;;;64.50;25.20;;;;;;;1.68;100.00;101764.98;106997;1284;59899;-81
2023/02/28 01:48:20;;;;;;;61.40;25.70;;;;;;;1.67;100.00;101770.36;106986;1285;73732;-81
2023/02/28 01:50:48;;;;;;;62.50;24.60;;;;;;;1.67;100.00;101773.95;106958;1283;74821;-80
2023/02/28 01:53:18;;;;;;;58.80;25.20;;;;;;;1.70;100.00;101775.55;106915;1284;73481;-80
2023/02/28 01:55:48;;;;;;;59.70;23.70;;;;;;;1.68;100.00;101772.38;106586;1284;61916;-80
2023/02/28 01:58:14;;;;;;;61.00;25.20;;;;;;;1.64;100.00;101774.25;106545;1284;60089;-81
2023/02/28 02:00:42;;;;;;;58.50;23.40;;;;;;;1.62;100.00;101776.59;107000;1284;58180;-81
2023/02/28 02:03:15;;;;;;;57.60;23.80;;;;;;;1.61;100.00;101782.00;107016;1285;73472;-81
2023/02/28 02:05:41;;;;;;;57.40;23.90;;;;;;;1.59;100.00;101776.55;106916;1285;72549;-81
2023/02/28 02:08:12;;;;;;;63.20;24.90;;;;;;;1.58;100.00;101766.11;106946;1284;58458;-81
2023/02/28 02:10:53;;;;;;;60.20;23.60;;;;;;;1.56;100.00;101758.15;106942;1284;60088;-81
2023/02/28 02:13:28;;;;;;;57.20;23.90;;;;;;;1.53;100.00;101755.23;106985;1284;74324;-81
2023/02/28 02:16:31;;;;;;;60.40;24.50;;;;;;;1.51;100.00;101753.77;106993;1284;73534;-82
2023/02/28 02:19:16;;;;;;;;;;;;;;;1.45;100.00;101755.95;106182;1291;72487;-81
2023/02/28 02:21:53;;;;;;;;;;;;;;;1.43;100.00;101755.14;106135;1291;59886;-81
2023/02/28 02:24:40;;;;;;;53.70;23.30;;;;;;;1.41;100.00;101757.36;106177;1291;60345;-81
2023/02/28 02:27:18;;;;;;;50.30;21.70;;;;;;;1.42;100.00;101768.05;106134;1291;74565;-81
2023/02/28 02:30:14;;;;;;;58.30;23.10;;;;;;;1.37;100.00;101775.17;106077;1291;73432;-81
2023/02/28 02:32:58;;;;;;;58.50;23.70;;;;;;;1.35;100.00;101785.08;106193;1291;72480;-81
2023/02/28 02:35:42;;;;;;;58.10;23.10;;;;;;;1.37;100.00;101791.27;106145;1291;62022;-82
2023/02/28 02:38:16;;;;;;;56.40;22.70;;;;;;;1.35;100.00;101797.78;106178;1291;61226;-83
2023/02/28 02:40:58;;;;;;;54.50;22.40;;;;;;;1.34;100.00;101799.67;106173;1291;74886;-81
2023/02/28 02:43:33;;;;;;;55.60;23.00;;;;;;;1.32;100.00;101802.44;106201;1291;73812;-81
2023/02/28 02:46:25;;;;;;;57.10;24.00;;;;;;;1.34;100.00;101809.77;106140;1291;73465;-82
2023/02/28 02:48:55;;;;;;;54.60;23.70;;;;;;;1.34;100.00;101813.33;106147;1291;60865;-83
2023/02/28 02:51:22;;;;;;;64.30;25.00;;;;;;;1.32;100.00;101821.03;106178;1291;60201;-82
2023/02/28 02:53:57;;;;;;;57.00;23.50;;;;;;;1.33;100.00;101826.33;106177;1291;73831;-82
2023/02/28 02:56:27;;;;;;;57.90;23.80;;;;;;;1.35;100.00;101832.56;106680;1285;74469;-82
2023/02/28 02:58:56;;;;;;;55.70;23.90;;;;;;;1.32;100.00;101836.00;106983;1284;72210;-82
2023/02/28 03:01:29;;;;;;;54.40;23.20;;;;;;;1.30;100.00;101839.67;106965;1283;59822;-81
2023/02/28 03:04:02;;;;;;;58.10;24.00;;;;;;;1.30;100.00;101849.37;106988;1283;60454;-82
2023/02/28 03:06:28;;;;;;;54.60;23.00;;;;;;;1.29;100.00;101849.40;106747;1285;73394;-81
2023/02/28 03:08:54;;;;;;;56.60;23.50;;;;;;;1.28;100.00;101851.29;106476;1284;58521;-82
2023/02/28 03:11:20;;;;;;;52.00;22.20;;;;;;;1.27;100.00;101854.63;106972;1284;58313;-82
2023/02/28 03:13:57;;;;;;;54.40;22.70;;;;;;;1.25;100.00;101856.77;106987;1284;58126;-81
2023/02/28 03:16:36;;;;;;;53.40;22.90;;;;;;;1.20;100.00;101856.28;106949;1284;60991;-82
2023/02/28 03:19:26;;;;;;;50.20;21.80;;;;;;;1.18;100.00;101855.09;107001;1283;74805;-81
2023/02/28 03:22:01;;;;;;;47.20;22.10;;;;;;;1.18;100.00;101860.46;106988;1284;74243;-82
2023/02/28 03:24:41;;;;;;;53.40;22.40;;;;;;;1.14;100.00;101862.06;106926;1284;72435;-82
2023/02/28 03:27:24;;;;;;;51.20;23.10;;;;;;;1.13;100.00;101870.61;106963;1284;61858;-82
2023/02/28 03:30:13;;;;;;;54.50;23.10;;;;;;;1.12;100.00;101877.35;107013;1284;60654;-83
2023/02/28 03:32:50;;;;;;;49.80;22.80;;;;;;;1.08;100.00;101883.56;106959;1284;74682;-81
2023/02/28 03:35:23;;;;;;;54.90;22.70;;;;;;;1.05;100.00;101885.67;106953;1283;73218;-82
2023/02/28 03:38:26;;;;;;;52.40;23.10;;;;;;;1.04;100.00;101890.23;107018;1283;73419;-81
2023/02/28 03:41:09;;;;;;;48.10;22.10;;;;;;;1.03;100.00;101888.41;106161;1291;61497;-82
2023/02/28 03:43:39;;;;;;;52.40;22.10;;;;;;;1.01;100.00;101892.11;106150;1291;60166;-81
2023/02/28 03:46:09;;;;;;;48.20;21.70;;;;;;;1.00;100.00;101890.66;105966;1291;74757;-81
2023/02/28 03:48:42;;;;;;;50.90;22.70;;;;;;;0.97;100.00;101892.38;106173;1291;74141;-81
2023/02/28 03:51:13;;;;;;;51.60;22.50;;;;;;;0.95;100.00;101889.63;105922;1291;73510;-82
2023/02/28 03:53:44;;;;;;;51.10;22.40;;;;;;;0.89;100.00;101890.45;105948;1291;61814;-81
2023/02/28 03:56:18;;;;;;;47.50;21.80;;;;;;;0.87;100.00;101893.05;106152;1291;60161;-82
2023/02/28 03:59:06;;;;;;;51.10;22.40;;;;;;;0.91;100.00;101890.03;106136;1291;73802;-81
2023/02/28 04:01:41;;;;;;;49.60;22.00;;;;;;;0.93;100.00;101891.77;106187;1291;73529;-81
2023/02/28 04:04:08;;;;;;;46.30;21.40;;;;;;;0.95;100.00;101895.48;106159;1291;73977;-81
2023/02/28 04:06:35;;;;;;;44.80;21.20;;;;;;;0.93;100.00;101893.70;106136;1291;61182;-82
2023/02/28 04:09:01;;;;;;;46.40;21.90;;;;;;;0.93;100.00;101889.15;106167;1291;60123;-81
2023/02/28 04:11:31;;;;;;;52.00;22.50;;;;;;;0.90;100.00;101886.39;105912;1291;59185;-81
2023/02/28 04:13:56;;;;;;;45.70;19.70;;;;;;;0.87;100.00;101886.95;106169;1291;73436;-82
2023/02/28 04:16:21;;;;;;;52.30;22.90;;;;;;;0.85;100.00;101888.70;106163;1291;58578;-82
2023/02/28 04:18:47;;;;;;;49.90;22.20;;;;;;;0.85;100.00;101893.99;106865;1285;58306;-81
2023/02/28 04:21:13;;;;;;;48.10;20.60;;;;;;;0.84;100.00;101898.20;106941;1284;58271;-82
2023/02/28 04:23:38;;;;;;;50.20;22.30;;;;;;;0.83;100.00;101905.95;107018;1283;58244;-81
2023/02/28 04:26:05;;;;;;;47.90;21.20;;;;;;;0.81;100.00;101905.39;106926;1284;73511;-81
2023/02/28 04:28:31;;;;;;;52.80;22.50;;;;;;;0.80;100.00;101911.32;106708;1284;61067;-81
2023/02/28 04:31:03;;;;;;;52.70;21.60;;;;;;;0.80;100.00;101912.61;106982;1284;58269;-81
2023/02/28 04:33:30;;;;;;;48.00;21.60;;;;;;;0.80;100.00;101910.42;107002;1284;74608;-82
2023/02/28 04:35:59;;;;;;;46.30;20.80;;;;;;;0.79;100.00;101919.77;107013;1284;74359;-82
2023/02/28 04:38:25;;;;;;;48.30;21.60;;;;;;;0.81;100.00;101929.63;106946;1284;71398;-81
2023/02/28 04:40:50;;;;;;;48.20;21.30;;;;;;;0.82;100.00;101936.13;106984;1284;58208;-82
2023/02/28 04:43:16;;;;;;;50.10;20.80;;;;;;;0.84;100.00;101941.38;107028;1283;58248;-81
2023/02/28 04:45:41;;;;;;;48.90;21.10;;;;;;;0.88;100.00;101944.67;106984;1283;58365;-82
2023/02/28 04:48:07;;;;;;;52.10;21.40;;;;;;;0.90;100.00;101942.98;106681;1284;58395;-82
2023/02/28 04:50:32;;;;;;;49.50;21.00;;;;;;;0.92;100.00;101942.66;106943;1284;58728;-81
2023/02/28 04:52:58;;;;;;;50.70;21.10;;;;;;;0.96;100.00;101950.79;106680;1283;58409;-81
2023/02/28 04:55:24;;;;;;;48.20;21.10;;;;;;;0.90;100.00;101951.71;106789;1284;58961;-82
2023/02/28 04:57:49;;;;;;;49.50;21.20;;;;;;;0.89;100.00;101950.71;106957;1283;58771;-82
2023/02/28 05:00:16;;;;;;;47.00;20.70;;;;;;;0.90;100.00;101955.09;106595;1285;58336;-81
2023/02/28 05:02:42;;;;;;;46.90;20.30;;;;;;;0.90;100.00;101955.42;107019;1283;61168;-82
2023/02/28 05:05:08;;;;;;;44.70;19.90;;;;;;;0.96;100.00;101958.36;106968;1283;58684;-82
2023/02/28 05:07:33;;;;;;;44.70;19.40;;;;;;;1.00;100.00;101957.18;106704;1283;58314;-82
2023/02/28 05:09:59;;;;;;;45.60;18.90;;;;;;;1.05;100.00;101960.60;106991;1284;58314;-80
2023/02/28 05:12:24;;;;;;;43.90;18.70;;;;;;;1.04;100.00;101964.19;107046;1283;58828;-81
2023/02/28 05:14:50;;;;;;;45.70;19.60;;;;;;;1.03;100.00;101962.02;106980;1284;73588;-82
2023/02/28 05:17:16;;;;;;;40.20;17.30;;;;;;;0.94;100.00;101967.34;107022;1283;58610;-81
2023/02/28 05:19:42;;;;;;;42.60;17.80;;;;;;;0.87;100.00;101966.86;106975;1283;58458;-82
2023/02/28 05:22:15;;;;;;;38.40;17.70;;;;;;;0.84;100.00;101970.51;106796;1283;58323;-82
2023/02/28 05:24:42;;;;;;;43.60;19.00;;;;;;;0.80;100.00;101981.41;106656;1285;61215;-82
2023/02/28 05:27:08;;;;;;;37.70;17.50;;;;;;;0.82;100.00;101988.31;106934;1283;73772;-83
2023/02/28 05:29:34;;;;;;;44.60;19.10;;;;;;;0.80;100.00;101989.19;106956;1284;58296;-82
2023/02/28 05:31:59;;;;;;;45.10;18.80;;;;;;;0.80;100.00;101988.70;106973;1285;58278;-82
2023/02/28 05:34:25;;;;;;;44.20;17.70;;;;;;;0.80;100.00;101991.68;107009;1284;58233;-81
2023/02/28 05:36:50;;;;;;;44.10;19.60;;;;;;;0.78;100.00;101985.30;107012;1285;58649;-82
2023/02/28 05:39:16;;;;;;;45.40;18.60;;;;;;;0.79;100.00;101977.69;107053;1284;58554;-83
2023/02/28 05:41:43;;;;;;;40.80;18.20;;;;;;;0.79;100.00;101973.70;106977;1284;72234;-82
2023/02/28 05:44:09;;;;;;;40.70;17.20;;;;;;;0.81;100.00;101974.08;106767;1285;59879;-82
2023/02/28 05:46:34;;;;;;;43.80;19.00;;;;;;;0.86;100.00;101974.20;106953;1284;58442;-82
2023/02/28 05:49:00;;;;;;;40.80;18.70;;;;;;;0.89;100.00;101974.95;107003;1285;58221;-82
2023/02/28 05:51:26;;;;;;;42.80;18.80;;;;;;;0.97;100.00;101974.39;107014;1284;69980;-82
2023/02/28 05:53:52;;;;;;;41.90;19.20;;;;;;;1.02;100.00;101973.92;106904;1284;58221;-83
2023/02/28 05:56:17;;;;;;;40.70;17.20;;;;;;;1.05;100.00;101974.16;107015;1284;58279;-82
2023/02/28 05:58:42;;;;;;;42.00;18.20;;;;;;;1.11;100.00;101975.30;106959;1283;74646;-82
2023/02/28 06:01:25;;;;;;;40.50;17.70;;;;;;;1.14;100.00;101978.73;106671;1285;58458;-83
2023/02/28 06:03:50;;;;;;;44.40;18.70;;;;;;;1.18;100.00;101985.94;106906;1284;72525;-83
2023/02/28 06:06:16;;;;;;;44.00;18.40;;;;;;;1.23;100.00;101984.48;106960;1284;58171;-82
2023/02/28 06:08:43;;;;;;;36.30;15.50;;;;;;;1.33;100.00;101989.81;106990;1284;58421;-83
2023/02/28 06:11:08;;;;;;;39.80;16.60;;;;;;;1.41;100.00;101993.36;106968;1284;58255;-82
2023/02/28 06:13:34;;;;;;;39.20;17.00;;;;;;;1.46;100.00;101997.63;106652;1284;58812;-82
2023/02/28 06:16:02;;;;;;;37.60;16.20;;;;;;;1.50;100.00;102006.16;106945;1284;58220;-82
2023/02/28 06:18:28;;;;;;;38.40;16.90;;;;;;;1.56;100.00;102009.48;106617;1285;58231;-83
2023/02/28 06:20:54;;;;;;;33.30;15.00;;;;;;;1.64;100.00;102005.27;107020;1284;58231;-82
2023/02/28 06:23:21;;;;;;;32.60;14.90;;;;;;;1.66;100.00;102003.02;107449;1278;58515;-83
2023/02/28 06:25:47;;;;;;;32.20;14.80;;;;;;;1.70;100.00;102009.53;107441;1278;58693;-82
2023/02/28 06:28:13;;;;;;;35.20;14.70;;;;;;;1.76;100.00;102008.04;107411;1278;58316;-83
2023/02/28 06:30:39;;;;;;;29.90;14.30;;;;;;;1.83;100.00;102010.92;107453;1278;58216;-82
2023/02/28 06:33:04;;;;;;;30.40;14.40;;;;;;;1.79;100.00;102012.05;107437;1278;74678;-83
2023/02/28 06:35:30;;;;;;;32.30;13.60;;;;;;;1.77;100.00;102008.52;107230;1278;285326;-82
2023/02/28 06:37:56;;;;;;;34.10;14.50;;;;;;;1.89;100.00;102003.91;107125;1279;58349;-83
2023/02/28 06:40:21;;;;;;;31.30;12.50;;;;;;;1.97;100.00;102006.75;107454;1278;58220;-83
2023/02/28 06:42:47;;;;;;;31.00;12.80;;;;;;;2.08;100.00;102001.98;107315;1279;58587;-83
2023/02/28 06:45:13;;;;;;;28.20;12.40;;;;;;;2.25;100.00;102004.78;107519;1278;58216;-83
2023/02/28 06:47:40;;;;;;;28.90;11.80;;;;;;;2.42;100.00;102001.61;107418;1278;72014;-83
2023/02/28 06:50:10;;;;;;;27.10;11.90;;;;;;;2.58;100.00;102001.45;107425;1278;60802;-82
2023/02/28 06:52:37;;;;;;;27.00;11.60;;;;;;;2.77;100.00;102007.30;107405;1278;60214;-83
2023/02/28 06:55:05;;;;;;;25.10;11.00;;;;;;;3.04;100.00;102010.79;107331;1279;58249;-82
2023/02/28 06:57:32;;;;;;;26.80;10.90;;;;;;;3.27;100.00;102013.52;107433;1278;73331;-84
2023/02/28 06:59:59;;;;;;;24.90;10.80;;;;;;;3.53;100.00;102015.92;107061;1279;73648;-85
2023/02/28 07:02:26;;;;;;;29.10;11.20;;;;;;;3.69;100.00;102016.96;107485;1278;60834;-84
2023/02/28 07:04:51;;;;;;;27.90;11.50;;;;;;;3.84;100.00;102021.27;107142;1279;58574;-84
2023/02/28 07:07:17;;;;;;;23.80;10.60;;;;;;;3.88;100.00;102023.98;107524;1278;58576;-83
2023/02/28 07:09:42;;;;;;;27.70;11.80;;;;;;;4.00;100.00;102022.08;107468;1278;58202;-84
2023/02/28 07:12:08;;;;;;;21.70;10.60;;;;;;;4.13;100.00;102023.46;107438;1278;58534;-84
2023/02/28 07:14:33;;;;;;;24.70;10.60;;;;;;;4.12;100.00;102028.31;107466;1278;58247;-84
2023/02/28 07:16:59;;;;;;;23.00;10.10;;;;;;;4.03;100.00;102030.89;107274;1279;74512;-84
2023/02/28 07:19:25;;;;;;;21.50;10.30;;;;;;;4.14;100.00;102035.40;107448;1278;58190;-84
2023/02/28 07:21:50;;;;;;;26.90;11.60;;;;;;;4.38;100.00;102033.50;107145;1279;58209;-85
2023/02/28 07:24:17;;;;;;;24.70;11.10;;;;;;;4.46;100.00;102031.00;107435;1278;58189;-85
2023/02/28 07:26:43;;;;;;;26.80;11.80;;;;;;;4.46;100.00;102032.39;107417;1278;58203;-84
2023/02/28 07:29:09;;;;;;;26.30;12.00;;;;;;;4.44;100.00;102031.71;107477;1278;58379;-84
2023/02/28 07:31:34;;;;;;;25.70;11.60;;;;;;;4.30;100.00;102031.17;107513;1278;58269;-84
2023/02/28 07:34:00;;;;;;;25.20;11.10;;;;;;;4.23;100.00;102023.36;107306;1279;61079;-85
2023/02/28 07:36:26;;;;;;;27.10;12.10;;;;;;;4.30;100.00;102017.88;107104;1279;58574;-84
2023/02/28 07:38:51;;;;;;;23.10;11.30;;;;;;;4.75;100.00;102014.82;107483;1278;58248;-85
2023/02/28 07:41:20;;;;;;;26.80;11.80;;;;;;;5.33;100.00;102019.13;107466;1278;58345;-84
2023/02/28 07:43:46;;;;;;;26.80;11.50;;;;;;;5.75;100.00;102019.81;107441;1278;58617;-85
2023/02/28 07:46:17;;;;;;;26.30;11.70;;;;;;;6.28;100.00;102016.04;107461;1278;58327;-85
2023/02/28 07:48:44;;;;;;;26.20;12.10;;;;;;;6.91;100.00;102016.55;107500;1278;59083;-86
2023/02/28 07:51:10;;;;;;;23.50;11.20;;;;;;;7.34;100.00;102015.04;107305;1281;72803;-87
2023/02/28 07:53:36;;;;;;;23.20;10.60;;;;;;;6.99;100.00;102014.39;107305;1279;58383;-85
2023/02/28 07:56:02;;;;;;;22.10;10.20;;;;;;;6.69;100.00;102014.77;107473;1278;58293;-84
2023/02/28 07:58:29;;;;;;;21.30;10.60;;;;;;;6.62;100.00;102016.83;107454;1278;58233;-84
2023/02/28 08:00:55;;;;;;;23.00;11.20;;;;;;;6.84;100.00;102019.65;107188;1279;58415;-85
2023/02/28 08:03:23;;;;;;;22.30;10.60;;;;;;;7.02;100.00;102015.71;107127;1279;58240;-85
2023/02/28 08:05:49;;;;;;;21.20;10.90;;;;;;;7.07;100.00;102018.79;107474;1278;74309;-85
2023/02/28 08:08:16;;;;;;;22.20;10.50;;;;;;;6.73;100.00;102015.77;107310;1279;58202;-85
2023/02/28 08:10:42;;;;;;;22.00;10.10;;;;;;;6.50;100.00;102018.04;107426;1278;62248;-83
2023/02/28 08:13:08;;;;;;;20.40;10.00;;;;;;;6.40;100.00;102021.89;107459;1278;58154;-84
2023/02/28 08:15:34;;;;;;;24.90;11.20;;;;;;;6.20;100.00;102025.77;107512;1278;58312;-84
2023/02/28 08:17:59;;;;;;;24.70;11.40;;;;;;;5.97;100.00;102030.27;107489;1278;58170;-83
2023/02/28 08:20:26;;;;;;;22.10;10.80;;;;;;;5.74;100.00;102032.60;107450;1278;58608;-83
2023/02/28 08:22:52;;;;;;;20.00;9.30;;;;;;;5.79;100.00;102035.13;107403;1278;58680;-84
2023/02/28 08:25:18;;;;;;;22.10;10.20;;;;;;;5.85;100.00;102036.89;107027;1279;58827;-86
2023/02/28 08:27:44;;;;;;;22.00;10.00;;;;;;;5.80;100.00;102036.47;107510;1279;58355;-84
2023/02/28 08:30:12;;;;;;;21.50;9.70;;;;;;;5.81;100.00;102035.67;107478;1278;73121;-85
2023/02/28 08:32:37;;;;;;;20.10;9.50;;;;;;;5.85;100.00;102034.10;107422;1279;61901;-85
2023/02/28 08:35:04;;;;;;;18.30;9.60;;;;;;;6.05;100.00;102037.84;107426;1278;58708;-84
2023/02/28 08:37:30;;;;;;;18.50;9.70;;;;;;;5.98;100.00;102030.20;107173;1282;58229;-83
2023/02/28 08:39:56;;;;;;;20.30;8.80;;;;;;;5.98;100.00;102032.06;106975;1279;58397;-82
2023/02/28 08:42:21;;;;;;;20.50;9.70;;;;;;;5.82;100.00;102036.89;107478;1278;58290;-82
2023/02/28 08:44:47;;;;;;;18.70;9.20;;;;;;;5.68;100.00;102041.89;107442;1278;58503;-82
2023/02/28 08:47:13;;;;;;;23.40;10.40;;;;;;;5.44;100.00;102042.76;107470;1278;58612;-82
2023/02/28 08:49:38;;;;;;;19.70;9.60;;;;;;;5.11;100.00;102050.50;107194;1279;73729;-84
2023/02/28 08:52:04;;;;;;;19.30;9.10;;;;;;;4.99;100.00;102048.45;107088;1279;58266;-83
2023/02/28 08:54:31;;;;;;;23.40;10.60;;;;;;;4.93;100.00;102047.19;107272;1279;59672;-83
2023/02/28 08:56:57;;;;;;;22.30;10.50;;;;;;;4.77;100.00;102055.20;107490;1278;58274;-83
2023/02/28 08:59:23;;;;;;;24.70;11.00;;;;;;;4.56;100.00;102058.04;107216;1279;58207;-82
2023/02/28 09:01:49;;;;;;;25.50;10.00;;;;;;;4.36;100.00;102056.55;107321;1279;58302;-82
2023/02/28 09:04:14;;;;;;;25.40;11.30;;;;;;;4.30;100.00;102054.58;107117;1279;58230;-83
2023/02/28 09:06:40;;;;;;;26.60;11.60;;;;;;;4.32;100.00;102057.77;107242;1279;58601;-82
2023/02/28 09:09:07;;;;;;;23.30;10.60;;;;;;;4.31;100.00;102059.38;107468;1278;74673;-82
2023/02/28 09:11:34;;;;;;;25.10;10.90;;;;;;;4.22;100.00;102067.84;107192;1278;74119;-83
2023/02/28 09:14:03;;;;;;;27.00;11.50;;;;;;;4.11;100.00;102068.73;107459;1278;72144;-82
2023/02/28 09:16:30;;;;;;;26.50;11.60;;;;;;;4.03;100.00;102073.10;107427;1278;60264;-83
2023/02/28 09:18:56;;;;;;;28.60;11.70;;;;;;;3.88;100.00;102073.43;107441;1278;60183;-83
2023/02/28 09:21:22;;;;;;;25.70;11.90;;;;;;;3.71;100.00;102069.40;107427;1279;58332;-81
2023/02/28 09:23:50;;;;;;;27.80;12.10;;;;;;;3.62;100.00;102067.12;107333;1279;58354;-83
2023/02/28 09:26:22;;;;;;;27.40;11.70;;;;;;;3.62;100.00;102061.32;106932;1278;69186;-82
2023/02/28 09:28:48;;;;;;;29.70;12.40;;;;;;;3.56;100.00;102060.63;107428;1278;60912;-84
2023/02/28 09:31:20;;;;;;;23.80;11.30;;;;;;;3.48;100.00;102059.02;107334;1279;58243;-82
2023/02/28 09:33:47;;;;;;;26.30;11.40;;;;;;;3.57;100.00;102060.98;107454;1278;73712;-82
2023/02/28 09:36:12;;;;;;;22.30;11.00;;;;;;;3.59;100.00;102060.23;107281;1279;59472;-82
2023/02/28 09:38:38;;;;;;;24.00;11.40;;;;;;;3.59;100.00;102054.38;107488;1279;59016;-83
2023/02/28 09:41:12;;;;;;;21.50;10.00;;;;;;;3.65;100.00;102054.08;107418;1278;58281;-82
2023/02/28 09:43:43;;;;;;;22.30;10.30;;;;;;;3.58;100.00;102053.17;107470;1278;60132;-83
2023/02/28 09:46:14;;;;;;;20.60;10.00;;;;;;;3.58;100.00;102051.98;107483;1278;72571;-83
2023/02/28 09:48:45;;;;;;;23.60;10.90;;;;;;;3.58;100.00;102048.55;107248;1279;72063;-83
2023/02/28 09:51:26;;;;;;;21.30;9.70;;;;;;;3.69;100.00;102049.91;107185;1279;73484;-82
2023/02/28 09:53:53;;;;;;;20.80;10.00;;;;;;;3.79;100.00;102052.23;107425;1278;60740;-82
2023/02/28 09:56:26;;;;;;;24.10;10.40;;;;;;;3.77;100.00;102047.61;107418;1278;60852;-83
2023/02/28 09:58:57;;;;;;;21.90;10.40;;;;;;;3.85;100.00;102052.29;107457;1283;73699;-85
2023/02/28 10:01:52;;;;;;;21.50;10.50;;;;;;;3.87;100.00;102050.36;107296;1279;72295;-83
2023/02/28 10:04:35;;;;;;;22.60;10.30;;;;;;;3.96;100.00;102050.92;106538;1287;73357;-84
2023/02/28 10:07:17;;;;;;;19.70;9.60;;;;;;;4.00;100.00;102048.39;106493;1288;61934;-84
2023/02/28 10:09:45;;;;;;;22.80;10.00;;;;;;;3.98;100.00;102047.01;106519;1287;61160;-85
2023/02/28 10:12:13;;;;;;;23.40;10.70;;;;;;;3.94;100.00;102045.64;106445;1288;74690;-84
2023/02/28 10:14:45;;;;;;;21.20;10.30;;;;;;;3.93;100.00;102046.02;106551;1287;74077;-85
2023/02/28 10:17:15;;;;;;;23.10;10.60;;;;;;;3.97;100.00;102047.12;106554;1287;73456;-84
2023/02/28 10:19:49;;;;;;;22.10;10.20;;;;;;;4.07;100.00;102044.69;106525;1288;62072;-84
2023/02/28 10:22:18;;;;;;;23.50;9.80;;;;;;;4.16;100.00;102040.20;106456;1288;61845;-84
2023/02/28 10:24:46;;;;;;;22.70;9.70;;;;;;;4.36;100.00;102034.38;106448;1288;74659;-84
2023/02/28 10:27:20;;;;;;;20.80;9.40;;;;;;;4.22;100.00;102036.39;106250;1288;74267;-85
2023/02/28 10:29:48;;;;;;;19.00;9.30;;;;;;;4.10;100.00;102039.33;106433;1288;72467;-85
2023/02/28 10:32:17;;;;;;;20.70;9.60;;;;;;;4.21;100.00;102038.30;106428;1288;60855;-84
2023/02/28 10:34:42;;;;;;;17.00;8.10;;;;;;;4.26;100.00;102035.30;106406;1288;60182;-84
2023/02/28 10:37:10;;;;;;;22.00;8.80;;;;;;;4.25;100.00;102028.31;106457;1288;58408;-85
2023/02/28 10:39:47;;;;;;;17.50;8.00;;;;;;;4.21;100.00;102027.69;106487;1288;74107;-84
2023/02/28 10:42:31;;;;;;;19.30;9.00;;;;;;;4.23;100.00;102024.63;106812;1280;71446;-84
2023/02/28 10:45:13;;;;;;;18.80;9.10;;;;;;;4.27;100.00;102020.46;107329;1280;61839;-84
2023/02/28 10:47:56;;;;;;;19.50;9.00;;;;;;;4.44;100.00;102020.41;107389;1280;61481;-85
2023/02/28 10:50:30;;;;;;;20.70;9.10;;;;;;;4.44;100.00;102020.88;106962;1280;74669;-85
2023/02/28 10:53:10;;;;;;;19.30;9.20;;;;;;;4.56;100.00;102016.19;107183;1279;74302;-86
2023/02/28 10:55:36;;;;;;;19.40;8.80;;;;;;;4.60;100.00;102008.88;107248;1280;71658;-85
2023/02/28 10:58:02;;;;;;;17.60;8.60;;;;;;;4.76;100.00;102005.71;107185;1282;58232;-85
2023/02/28 11:00:35;;;;;;;19.20;9.30;;;;;;;4.88;100.00;102006.09;107042;1280;58260;-86
2023/02/28 11:03:00;;;;;;;18.40;9.00;;;;;;;4.89;100.00;102006.51;107013;1282;71671;-85
2023/02/28 11:05:32;;;;;;;22.20;9.10;;;;;;;4.85;100.00;102010.48;107206;1280;58763;-86
2023/02/28 11:08:17;;;;;;;17.40;8.40;;;;;;;4.87;100.00;102009.85;107277;1280;73440;-85
2023/02/28 11:10:56;;;;;;;18.40;8.80;;;;;;;4.75;100.00;102003.80;107323;1280;59827;-85